Time;durP1;ratioP1;P1;durP2;ratioP2;P2;SDS_P1;SDS_P2;PMS_P1;PMS_P2;Temp;Humidity;BMP_temperature;BMP_pressure;BME280_temperature;BME280_humidity;BME280_pressure;Samples;Min_cycle;Max_cycle;Signal;HPM_P1;HPM_P2
2021/09/27 00:01:32;;;;;;;14.03;10.23;;;17.50;99.90;;;;;;5075929;28;20213;-79
2021/09/27 00:03:59;;;;;;;17.27;10.63;;;17.60;99.90;;;;;;5075692;28;20668;-79
2021/09/27 00:06:26;;;;;;;16.53;10.53;;;17.50;99.90;;;;;;5076016;28;20203;-79
2021/09/27 00:08:53;;;;;;;17.10;10.03;;;17.40;99.90;;;;;;5075797;28;20223;-79
2021/09/27 00:11:22;;;;;;;16.63;10.50;;;17.40;99.90;;;;;;5075605;28;20209;-79
2021/09/27 00:13:53;;;;;;;16.43;10.47;;;17.40;99.90;;;;;;5075647;28;20290;-79
2021/09/27 00:16:21;;;;;;;15.90;10.67;;;17.40;99.90;;;;;;5075618;28;20286;-79
2021/09/27 00:18:49;;;;;;;20.80;11.17;;;17.40;99.90;;;;;;5076021;28;20294;-80
2021/09/27 00:21:20;;;;;;;16.40;10.63;;;17.30;99.90;;;;;;5075663;28;20303;-80
2021/09/27 00:23:47;;;;;;;18.13;10.23;;;17.30;99.90;;;;;;5075605;28;20203;-79
2021/09/27 00:26:15;;;;;;;17.07;10.43;;;17.30;99.90;;;;;;5075368;28;20299;-79
2021/09/27 00:28:41;;;;;;;17.73;10.80;;;17.20;99.90;;;;;;5075222;28;20227;-79
2021/09/27 00:31:10;;;;;;;16.47;10.70;;;17.20;99.90;;;;;;5075643;28;20290;-79
2021/09/27 00:33:38;;;;;;;18.13;10.70;;;17.10;99.90;;;;;;5075334;28;20211;-79
2021/09/27 00:36:05;;;;;;;17.67;11.40;;;17.00;99.90;;;;;;5075249;28;20215;-79
2021/09/27 00:38:33;;;;;;;18.83;11.10;;;17.00;99.90;;;;;;5075327;28;20275;-79
2021/09/27 00:41:02;;;;;;;20.20;12.37;;;17.10;99.90;;;;;;5075404;28;20208;-79
2021/09/27 00:43:31;;;;;;;20.97;11.73;;;17.00;99.90;;;;;;5074973;28;20656;-79
2021/09/27 00:46:01;;;;;;;17.23;11.20;;;17.00;99.90;;;;;;5075452;28;20207;-79
2021/09/27 00:48:30;;;;;;;23.37;12.00;;;17.00;99.90;;;;;;5075224;28;20269;-79
2021/09/27 00:51:00;;;;;;;18.47;11.73;;;17.00;99.90;;;;;;5075170;28;20209;-79
2021/09/27 00:53:33;;;;;;;19.37;12.53;;;17.00;99.90;;;;;;5074945;28;20208;-78
2021/09/27 00:56:00;;;;;;;22.93;12.63;;;16.90;99.90;;;;;;5075302;28;20204;-79
2021/09/27 00:58:29;;;;;;;24.90;13.87;;;16.90;99.90;;;;;;5074836;28;20291;-79
2021/09/27 01:00:57;;;;;;;27.37;13.90;;;16.80;99.90;;;;;;5074994;28;20295;-79
2021/09/27 01:03:24;;;;;;;26.20;14.77;;;16.70;99.90;;;;;;5074899;28;20739;-79
2021/09/27 01:06:02;;;;;;;25.10;14.27;;;16.80;99.90;;;;;;5074558;28;20649;-79
2021/09/27 01:08:37;;;;;;;27.67;15.30;;;16.80;99.90;;;;;;5074620;28;20227;-79
2021/09/27 01:11:18;;;;;;;33.47;16.13;;;16.80;99.90;;;;;;5074922;28;20203;-79
2021/09/27 01:14:07;;;;;;;31.47;16.03;;;16.80;99.90;;;;;;5075022;28;20211;-79
2021/09/27 01:16:43;;;;;;;29.67;16.13;;;16.90;99.90;;;;;;5074514;28;20584;-79
2021/09/27 01:20:00;;;;;;;28.83;16.27;;;16.80;99.90;;;;;;5074875;28;20203;-79
2021/09/27 01:22:49;;;;;;;27.77;15.63;;;16.90;99.90;;;;;;5042477;28;20210;-79
2021/09/27 01:25:35;;;;;;;33.73;16.80;;;16.90;99.90;;;;;;5062165;28;20241;-79
2021/09/27 01:28:43;;;;;;;29.13;15.77;;;16.90;99.90;;;;;;5074192;28;20263;-79
2021/09/27 01:31:50;;;;;;;32.97;16.50;;;16.80;99.90;;;;;;5032158;28;20211;-79
2021/09/27 01:34:24;;;;;;;29.50;16.33;;;16.80;99.90;;;;;;5048412;28;20221;-79
2021/09/27 01:37:00;;;;;;;31.17;16.37;;;16.80;99.90;;;;;;5074459;28;20199;-79
2021/09/27 01:39:34;;;;;;;25.77;15.43;;;16.70;99.90;;;;;;5074273;28;20201;-79
2021/09/27 01:42:10;;;;;;;28.20;15.57;;;16.70;99.90;;;;;;5073947;28;20230;-79
2021/09/27 01:44:43;;;;;;;32.70;15.67;;;16.70;99.90;;;;;;5074133;28;20571;-79
2021/09/27 01:47:16;;;;;;;25.83;15.60;;;16.70;99.90;;;;;;5073947;28;20231;-79
2021/09/27 01:49:51;;;;;;;26.80;15.57;;;16.70;99.90;;;;;;5074088;28;20590;-79
2021/09/27 01:52:25;;;;;;;25.63;15.40;;;16.60;99.90;;;;;;5074063;28;20578;-79
2021/09/27 01:54:56;;;;;;;27.17;15.30;;;16.60;99.90;;;;;;5073390;28;20203;-79
2021/09/27 01:57:28;;;;;;;27.00;15.00;;;16.60;99.90;;;;;;5073732;28;20628;-79
2021/09/27 02:00:01;;;;;;;23.63;14.43;;;16.70;99.90;;;;;;5073811;28;20575;-79
2021/09/27 02:02:35;;;;;;;25.97;14.30;;;16.60;99.90;;;;;;5073759;28;20202;-79
2021/09/27 02:05:11;;;;;;;23.17;13.90;;;16.60;99.90;;;;;;5073682;28;20573;-79
2021/09/27 02:07:45;;;;;;;24.17;13.73;;;16.70;99.90;;;;;;5073757;28;20206;-79
2021/09/27 02:10:17;;;;;;;28.03;14.50;;;16.60;99.90;;;;;;5073570;28;20199;-80
2021/09/27 02:12:49;;;;;;;24.90;13.47;;;16.60;99.90;;;;;;5073417;28;20203;-79
2021/09/27 02:15:22;;;;;;;22.07;13.27;;;16.70;99.90;;;;;;5073500;28;20200;-79
2021/09/27 02:17:57;;;;;;;27.23;14.33;;;16.60;99.90;;;;;;5073580;28;20214;-79
2021/09/27 02:20:30;;;;;;;24.33;13.90;;;16.70;99.90;;;;;;5073332;28;20704;-79
2021/09/27 02:23:05;;;;;;;26.20;14.43;;;16.70;99.90;;;;;;5073499;28;20195;-78
2021/09/27 02:25:36;;;;;;;29.10;15.60;;;16.70;99.90;;;;;;5073575;28;20202;-79
2021/09/27 02:28:05;;;;;;;25.60;15.30;;;16.70;99.90;;;;;;5073216;28;20219;-78
2021/09/27 02:30:41;;;;;;;27.00;14.53;;;16.70;99.90;;;;;;5073095;28;20234;-79
2021/09/27 02:33:18;;;;;;;27.33;14.83;;;16.70;99.90;;;;;;5072917;28;20211;-79
2021/09/27 02:35:52;;;;;;;27.93;14.93;;;16.60;99.90;;;;;;5073105;28;20203;-79
2021/09/27 02:38:25;;;;;;;26.27;14.47;;;16.60;99.90;;;;;;5064582;28;20195;-79
2021/09/27 02:40:56;;;;;;;22.53;13.87;;;16.50;99.90;;;;;;5072949;28;20203;-79
2021/09/27 02:43:24;;;;;;;26.13;14.57;;;16.60;99.90;;;;;;5073041;28;20282;-79
2021/09/27 02:45:52;;;;;;;25.63;15.30;;;16.50;99.90;;;;;;5072723;28;20644;-79
2021/09/27 02:48:29;;;;;;;25.93;14.57;;;16.50;99.90;;;;;;5072737;28;20306;-79
2021/09/27 02:50:57;;;;;;;23.50;14.50;;;16.40;99.90;;;;;;5072629;28;20237;-79
2021/09/27 02:53:24;;;;;;;23.93;14.10;;;16.40;99.90;;;;;;5073114;28;20203;-79
2021/09/27 02:56:13;;;;;;;24.20;14.30;;;16.40;99.90;;;;;;5072728;28;20222;-79
2021/09/27 02:58:45;;;;;;;28.37;15.97;;;16.30;99.90;;;;;;5073091;28;20196;-79
2021/09/27 03:01:17;;;;;;;25.90;13.73;;;16.30;99.90;;;;;;5073046;28;20286;-79
2021/09/27 03:03:58;;;;;;;25.87;14.87;;;16.30;99.90;;;;;;5073001;28;20203;-79
2021/09/27 03:06:41;;;;;;;24.53;14.80;;;16.30;99.90;;;;;;5071892;28;20209;-79
2021/09/27 03:09:19;;;;;;;25.20;13.73;;;16.20;99.90;;;;;;5072481;28;20215;-79
2021/09/27 03:12:12;;;;;;;25.53;13.80;;;16.20;99.90;;;;;;5072858;28;20206;-79
2021/09/27 03:14:58;;;;;;;23.90;13.03;;;16.20;99.90;;;;;;5072822;28;20195;-78
2021/09/27 03:17:32;;;;;;;28.63;14.53;;;16.20;99.90;;;;;;5072665;28;20310;-79
2021/09/27 03:20:29;;;;;;;27.93;15.43;;;16.20;99.90;;;;;;5073157;28;20192;-79
2021/09/27 03:23:04;;;;;;;32.93;15.83;;;16.20;99.90;;;;;;5072427;28;20682;-79
2021/09/27 03:25:43;;;;;;;33.87;16.63;;;16.20;99.90;;;;;;5072973;28;20286;-79
2021/09/27 03:28:21;;;;;;;32.90;16.03;;;16.20;99.90;;;;;;5072329;28;20715;-79
2021/09/27 03:30:58;;;;;;;32.47;16.87;;;16.10;99.90;;;;;;5072759;28;20214;-79
2021/09/27 03:33:34;;;;;;;36.53;17.57;;;16.10;99.90;;;;;;5072621;28;20218;-79
2021/09/27 03:36:30;;;;;;;29.70;16.77;;;16.00;99.90;;;;;;5072491;28;20211;-79
2021/09/27 03:39:07;;;;;;;33.23;18.13;;;16.00;99.90;;;;;;5072727;28;20282;-79
2021/09/27 03:41:40;;;;;;;38.50;18.70;;;15.90;99.90;;;;;;5072582;28;20199;-78
2021/09/27 03:44:20;;;;;;;36.83;19.30;;;15.90;99.90;;;;;;5072523;28;20210;-79
2021/09/27 03:46:55;;;;;;;39.30;20.17;;;16.00;99.90;;;;;;5072322;28;20264;-78
2021/09/27 03:49:28;;;;;;;38.27;20.07;;;16.00;99.90;;;;;;5072648;28;20241;-79
2021/09/27 03:52:03;;;;;;;39.17;21.03;;;16.00;99.90;;;;;;5072502;28;20206;-78
2021/09/27 03:54:33;;;;;;;34.20;20.53;;;16.10;99.90;;;;;;5072384;28;20656;-79
2021/09/27 03:57:05;;;;;;;40.23;20.80;;;16.00;99.90;;;;;;5072075;28;20207;-78
2021/09/27 03:59:38;;;;;;;39.67;20.47;;;16.10;99.90;;;;;;5072458;28;20204;-79
2021/09/27 04:02:12;;;;;;;39.50;21.70;;;16.10;99.90;;;;;;5072391;28;20200;-78
2021/09/27 04:04:51;;;;;;;39.80;21.30;;;16.10;99.90;;;;;;5072254;28;20295;-79
2021/09/27 04:07:28;;;;;;;35.50;19.93;;;16.10;99.90;;;;;;5072472;28;20264;-79
2021/09/27 04:10:05;;;;;;;33.17;19.20;;;16.00;99.90;;;;;;5072433;28;20653;-79
2021/09/27 04:12:40;;;;;;;39.10;19.33;;;15.90;99.90;;;;;;5071936;28;20196;-78
2021/09/27 04:15:21;;;;;;;34.33;17.63;;;16.00;99.90;;;;;;5072153;28;20210;-79
2021/09/27 04:18:04;;;;;;;37.03;19.30;;;16.00;99.90;;;;;;5074730;28;20288;-79
2021/09/27 04:20:42;;;;;;;33.33;19.57;;;16.10;99.90;;;;;;5075817;28;20290;-79
2021/09/27 04:23:19;;;;;;;38.70;20.70;;;16.20;99.90;;;;;;5075816;28;20302;-79
2021/09/27 04:25:59;;;;;;;39.23;20.60;;;16.20;99.90;;;;;;5075504;28;20213;-78
2021/09/27 04:28:54;;;;;;;39.60;20.90;;;16.30;99.90;;;;;;5075363;28;20207;-79
2021/09/27 04:31:32;;;;;;;42.07;22.03;;;16.30;99.90;;;;;;5075617;28;20213;-79
2021/09/27 04:34:38;;;;;;;38.17;20.80;;;16.30;99.90;;;;;;5075405;28;20676;-78
2021/09/27 04:37:06;;;;;;;36.83;20.93;;;16.30;99.90;;;;;;5065521;28;20664;-79
2021/09/27 04:39:36;;;;;;;43.17;20.67;;;16.40;99.90;;;;;;5075173;28;20206;-79
2021/09/27 04:42:55;;;;;;;44.80;22.47;;;16.30;99.90;;;;;;5075800;28;20222;-79
2021/09/27 04:45:41;;;;;;;41.00;21.17;;;16.30;99.90;;;;;;5075374;28;20218;-79
2021/09/27 04:48:17;;;;;;;40.50;23.07;;;16.30;99.90;;;;;;5075346;28;20290;-79
2021/09/27 04:50:54;;;;;;;40.17;21.53;;;16.30;99.90;;;;;;5061962;28;20195;-79
2021/09/27 04:53:35;;;;;;;39.97;21.33;;;16.40;99.90;;;;;;5075158;28;20203;-78
2021/09/27 04:56:13;;;;;;;42.53;22.17;;;16.50;99.90;;;;;;5075124;28;20241;-79
2021/09/27 04:58:53;;;;;;;40.90;21.23;;;16.60;99.90;;;;;;5075004;28;20210;-79
2021/09/27 05:01:52;;;;;;;42.63;21.13;;;16.50;99.90;;;;;;5074956;28;20683;-79
2021/09/27 05:04:36;;;;;;;39.37;20.63;;;16.60;99.90;;;;;;5075042;28;20566;-78
2021/09/27 05:07:31;;;;;;;41.13;21.37;;;16.60;99.90;;;;;;5074993;28;20199;-78
2021/09/27 05:10:10;;;;;;;40.57;20.57;;;16.70;99.90;;;;;;5074997;28;20215;-79
2021/09/27 05:13:02;;;;;;;38.03;21.33;;;16.70;99.90;;;;;;5074647;28;20627;-79
2021/09/27 05:15:56;;;;;;;38.70;20.17;;;16.70;99.90;;;;;;5074575;28;20203;-78
2021/09/27 05:19:03;;;;;;;42.13;21.03;;;16.70;99.90;;;;;;5069943;28;20207;-79
2021/09/27 05:21:57;;;;;;;38.77;19.80;;;16.80;99.90;;;;;;5024977;28;20205;-79
2021/09/27 05:24:50;;;;;;;42.37;20.40;;;16.80;99.90;;;;;;5065730;28;20668;-78
2021/09/27 05:27:42;;;;;;;38.27;19.77;;;16.80;99.90;;;;;;5065881;28;20203;-79
2021/09/27 05:30:16;;;;;;;39.27;18.93;;;16.80;99.90;;;;;;5064649;28;20214;-79
2021/09/27 05:32:52;;;;;;;37.17;19.53;;;16.80;99.90;;;;;;5064138;28;20209;-79
2021/09/27 05:35:40;;;;;;;41.50;20.67;;;16.90;99.90;;;;;;5067806;28;20207;-79
2021/09/27 05:38:17;;;;;;;40.70;19.57;;;16.90;99.90;;;;;;5069136;28;20641;-79
2021/09/27 05:40:57;;;;;;;36.47;19.00;;;16.90;99.90;;;;;;5071213;28;20656;-79
2021/09/27 05:43:51;;;;;;;35.80;18.97;;;17.00;99.90;;;;;;5071880;28;20198;-78
2021/09/27 05:46:33;;;;;;;34.00;18.30;;;17.00;99.90;;;;;;5069686;28;20218;-79
2021/09/27 05:49:05;;;;;;;34.50;18.53;;;17.00;99.90;;;;;;5067457;28;20622;-78
2021/09/27 05:51:40;;;;;;;33.33;18.47;;;17.10;99.90;;;;;;5065631;28;20214;-78
2021/09/27 05:54:16;;;;;;;32.97;17.30;;;17.10;99.90;;;;;;5060230;28;20195;-78
2021/09/27 05:56:47;;;;;;;29.57;17.07;;;17.10;99.90;;;;;;5065385;28;20199;-79
2021/09/27 05:59:21;;;;;;;26.47;16.70;;;17.20;99.90;;;;;;5060091;28;20202;-79
2021/09/27 06:01:57;;;;;;;28.70;15.70;;;17.30;99.90;;;;;;5065173;28;20229;-78
2021/09/27 06:04:27;;;;;;;29.93;15.73;;;17.40;99.90;;;;;;5060657;28;20199;-79
2021/09/27 06:07:08;;;;;;;24.33;14.33;;;17.40;99.90;;;;;;5065594;28;20547;-79
2021/09/27 06:09:49;;;;;;;24.57;14.60;;;17.40;99.90;;;;;;5060649;28;20306;-79
2021/09/27 06:12:23;;;;;;;23.13;14.67;;;17.50;99.90;;;;;;5068933;28;20199;-78
2021/09/27 06:14:55;;;;;;;24.77;13.60;;;17.50;99.90;;;;;;5069403;28;20640;-79
2021/09/27 06:17:43;;;;;;;17.97;12.83;;;17.60;99.90;;;;;;5068418;28;20648;-79
2021/09/27 06:20:15;;;;;;;19.93;13.00;;;17.60;99.90;;;;;;5072646;28;20293;-79
2021/09/27 06:23:04;;;;;;;20.40;13.13;;;17.60;99.90;;;;;;5071702;28;20191;-79
2021/09/27 06:25:39;;;;;;;18.77;12.50;;;17.70;99.90;;;;;;5072881;28;20203;-79
2021/09/27 06:28:13;;;;;;;19.70;12.77;;;17.70;99.90;;;;;;5072951;28;20205;-79
2021/09/27 06:30:44;;;;;;;20.00;12.37;;;17.80;99.90;;;;;;5073008;28;20207;-79
2021/09/27 06:33:18;;;;;;;19.47;11.90;;;17.70;99.90;;;;;;5072630;28;20691;-78
2021/09/27 06:35:47;;;;;;;20.23;12.53;;;17.80;99.90;;;;;;5072956;28;20928;-78
2021/09/27 06:38:17;;;;;;;18.33;11.37;;;17.90;99.90;;;;;;5072866;28;20199;-79
2021/09/27 06:40:47;;;;;;;16.87;11.13;;;17.90;99.90;;;;;;5072351;28;20221;-75
2021/09/27 06:43:17;;;;;;;16.40;10.93;;;17.90;99.90;;;;;;5072896;28;20210;-75
2021/09/27 06:45:44;;;;;;;14.90;9.80;;;18.00;99.90;;;;;;5073295;28;20656;-79
2021/09/27 06:48:11;;;;;;;17.47;10.60;;;18.10;99.90;;;;;;5073126;28;20275;-79
2021/09/27 06:50:38;;;;;;;16.80;10.03;;;18.20;99.90;;;;;;5073336;28;20318;-79
2021/09/27 06:53:05;;;;;;;13.73;9.67;;;18.20;99.90;;;;;;5073407;28;20298;-79
2021/09/27 06:55:34;;;;;;;13.37;8.60;;;18.20;99.90;;;;;;5072914;28;20531;-79
2021/09/27 06:58:01;;;;;;;15.50;9.13;;;18.30;99.90;;;;;;5073229;28;20199;-79
2021/09/27 07:00:28;;;;;;;12.40;8.47;;;18.30;99.90;;;;;;5072749;28;20664;-79
2021/09/27 07:02:54;;;;;;;12.73;8.37;;;18.20;99.90;;;;;;5073176;28;20278;-79
2021/09/27 07:05:21;;;;;;;10.13;8.43;;;18.30;99.90;;;;;;5072998;28;20200;-79
2021/09/27 07:07:48;;;;;;;9.33;7.33;;;18.30;99.90;;;;;;5073122;28;20195;-79
2021/09/27 07:10:18;;;;;;;10.30;7.40;;;18.30;99.90;;;;;;5077063;28;20318;-79
2021/09/27 07:12:46;;;;;;;11.97;7.60;;;18.30;99.90;;;;;;5082900;28;20562;-79
2021/09/27 07:15:14;;;;;;;11.50;7.43;;;18.30;99.90;;;;;;5083281;28;20731;-79
2021/09/27 07:17:41;;;;;;;9.47;7.60;;;18.40;99.90;;;;;;5079179;28;20196;-79
2021/09/27 07:20:12;;;;;;;10.47;7.40;;;18.40;99.90;;;;;;5082699;28;20285;-79
2021/09/27 07:22:39;;;;;;;9.83;7.37;;;18.50;99.90;;;;;;5083446;28;20271;-79
2021/09/27 07:25:08;;;;;;;12.97;6.70;;;18.50;99.90;;;;;;5082142;28;20625;-79
2021/09/27 07:27:35;;;;;;;17.37;6.90;;;18.60;99.90;;;;;;5081311;28;20570;-79
2021/09/27 07:30:05;;;;;;;18.50;7.20;;;18.70;99.90;;;;;;5079169;28;20219;-79
2021/09/27 07:32:32;;;;;;;9.90;6.53;;;18.70;99.90;;;;;;5081791;28;20589;-79
2021/09/27 07:34:59;;;;;;;8.67;6.57;;;18.90;99.90;;;;;;5083587;28;20198;-79
2021/09/27 07:37:26;;;;;;;9.50;6.10;;;19.00;99.90;;;;;;5081990;28;20683;-79
2021/09/27 07:39:52;;;;;;;8.60;6.10;;;19.10;99.90;;;;;;5081438;28;20218;-79
2021/09/27 07:42:19;;;;;;;10.97;6.53;;;19.20;99.90;;;;;;5080425;28;20205;-79
2021/09/27 07:44:46;;;;;;;7.50;5.70;;;19.10;99.90;;;;;;5077961;28;20203;-78
2021/09/27 07:47:31;;;;;;;8.23;5.50;;;19.10;99.90;;;;;;5135017;27;20569;-79
2021/09/27 07:49:58;;;;;;;12.13;5.37;;;19.30;99.90;;;;;;5111926;28;20298;-78
2021/09/27 07:52:25;;;;;;;8.60;6.07;;;19.40;99.90;;;;;;5113051;28;20225;-79
2021/09/27 07:54:52;;;;;;;7.37;5.63;;;19.50;99.90;;;;;;5108440;28;20282;-78
2021/09/27 07:57:19;;;;;;;9.83;5.17;;;19.70;99.90;;;;;;5107920;28;20210;-80
2021/09/27 07:59:47;;;;;;;9.17;4.93;;;19.80;99.90;;;;;;5124129;28;20204;-80
2021/09/27 08:02:18;;;;;;;5.87;4.63;;;19.80;99.90;;;;;;5112528;28;20195;-81
2021/09/27 08:04:47;;;;;;;12.20;5.50;;;19.70;99.90;;;;;;5112591;28;20703;-80
2021/09/27 08:07:15;;;;;;;6.40;4.70;;;19.70;99.90;;;;;;5107478;28;20703;-77
2021/09/27 08:09:42;;;;;;;11.13;4.93;;;19.70;99.90;;;;;;5105455;28;20214;-77
2021/09/27 08:12:09;;;;;;;6.63;4.70;;;19.90;99.90;;;;;;5109180;28;20212;-76
2021/09/27 08:14:36;;;;;;;6.37;4.80;;;20.00;99.90;;;;;;5106237;28;20620;-79
2021/09/27 08:17:03;;;;;;;7.10;4.90;;;20.00;99.90;;;;;;5111144;28;20204;-80
2021/09/27 08:19:31;;;;;;;6.63;4.40;;;20.00;99.90;;;;;;5116562;28;20681;-82
2021/09/27 08:21:59;;;;;;;7.17;4.97;;;20.10;99.90;;;;;;5132204;28;20217;-81
2021/09/27 08:24:26;;;;;;;7.80;4.43;;;20.20;99.90;;;;;;5116160;28;20237;-83
2021/09/27 08:26:53;;;;;;;6.33;4.40;;;20.20;99.90;;;;;;5109431;28;21509;-81
2021/09/27 08:29:20;;;;;;;5.40;4.17;;;20.20;99.90;;;;;;5110096;28;20289;-82
2021/09/27 08:31:47;;;;;;;5.97;3.80;;;20.20;99.90;;;;;;5111167;28;20202;-82
2021/09/27 08:34:16;;;;;;;6.17;3.90;;;19.90;99.90;;;;;;5113731;28;20234;-82
2021/09/27 08:36:43;;;;;;;6.30;4.13;;;19.80;99.90;;;;;;5109244;28;20221;-80
2021/09/27 08:39:12;;;;;;;5.97;3.90;;;19.80;99.90;;;;;;5126299;27;20230;-81
2021/09/27 08:41:51;;;;;;;7.17;3.93;;;19.70;99.90;;;;;;5112477;28;20233;-82
2021/09/27 08:44:31;;;;;;;4.73;4.20;;;19.60;99.90;;;;;;5109626;28;20190;-81
2021/09/27 08:47:02;;;;;;;7.30;4.00;;;19.50;99.90;;;;;;5109838;28;20220;-81
2021/09/27 08:49:39;;;;;;;5.43;4.10;;;19.60;99.90;;;;;;5121492;28;20206;-82
2021/09/27 08:52:07;;;;;;;7.43;4.33;;;19.70;99.90;;;;;;5118031;28;20222;-80
2021/09/27 08:54:36;;;;;;;6.37;4.10;;;19.70;99.90;;;;;;5117625;27;20240;-81
2021/09/27 08:57:10;;;;;;;7.50;4.10;;;19.80;99.90;;;;;;5116428;28;20191;-80
2021/09/27 08:59:46;;;;;;;7.23;3.70;;;19.90;99.90;;;;;;5097367;28;20602;-80
2021/09/27 09:02:23;;;;;;;7.87;4.07;;;20.10;99.90;;;;;;5100846;28;20226;-81
2021/09/27 09:05:06;;;;;;;6.27;3.77;;;20.30;99.90;;;;;;5105421;28;20273;-81
2021/09/27 09:07:37;;;;;;;5.40;3.90;;;20.60;99.90;;;;;;5100395;28;20298;-83
2021/09/27 09:10:09;;;;;;;8.40;4.27;;;20.70;99.90;;;;;;5103829;28;20564;-80
2021/09/27 09:12:45;;;;;;;5.70;3.60;;;20.70;99.90;;;;;;5110709;28;20580;-81
2021/09/27 09:15:18;;;;;;;6.77;3.97;;;20.60;99.90;;;;;;5101127;28;20198;-81
2021/09/27 09:17:51;;;;;;;6.17;4.03;;;20.60;99.90;;;;;;5102998;28;20331;-80
2021/09/27 09:20:22;;;;;;;7.43;3.77;;;20.60;99.90;;;;;;5088951;28;20229;-79
2021/09/27 09:22:49;;;;;;;8.20;3.80;;;20.50;99.90;;;;;;5093850;28;20630;-79
2021/09/27 09:25:26;;;;;;;8.27;3.83;;;20.70;99.90;;;;;;5094880;28;20233;-82
2021/09/27 09:27:53;;;;;;;7.70;3.80;;;20.70;99.90;;;;;;5096280;28;20226;-80
2021/09/27 09:30:23;;;;;;;7.50;3.87;;;20.80;99.90;;;;;;5111374;28;20191;-80
2021/09/27 09:32:53;;;;;;;4.90;3.30;;;20.80;99.90;;;;;;5096697;28;20335;-81
2021/09/27 09:35:24;;;;;;;9.27;3.97;;;20.40;99.90;;;;;;5102652;28;20194;-81
2021/09/27 09:37:54;;;;;;;4.30;3.30;;;20.30;99.90;;;;;;5095532;28;20233;-81
2021/09/27 09:40:27;;;;;;;7.80;3.67;;;20.30;99.90;;;;;;5093394;28;20207;-80
2021/09/27 09:42:58;;;;;;;5.33;3.30;;;20.20;99.90;;;;;;5094191;28;20464;-79
2021/09/27 09:45:27;;;;;;;4.70;3.00;;;20.10;99.90;;;;;;5093577;28;20294;-80
2021/09/27 09:48:11;;;;;;;6.80;3.30;;;20.00;99.90;;;;;;5096038;28;20215;-82
2021/09/27 09:50:38;;;;;;;4.97;3.20;;;20.00;99.90;;;;;;5089981;28;20187;-80
2021/09/27 09:53:18;;;;;;;5.13;3.40;;;20.00;99.90;;;;;;5090000;28;20730;-80
2021/09/27 09:55:55;;;;;;;4.90;3.50;;;20.00;99.90;;;;;;5092663;28;20266;-80
2021/09/27 09:58:38;;;;;;;8.77;3.43;;;19.90;99.90;;;;;;5088844;28;20720;-82
2021/09/27 10:01:08;;;;;;;8.73;3.00;;;20.00;99.90;;;;;;5083055;28;20210;-80
2021/09/27 10:03:37;;;;;;;4.93;3.40;;;20.10;99.90;;;;;;5094744;28;20203;-79
2021/09/27 10:06:07;;;;;;;8.07;3.40;;;20.10;99.90;;;;;;5094270;28;20219;-80
2021/09/27 10:08:36;;;;;;;7.57;3.33;;;20.30;99.90;;;;;;5108568;28;20273;-80
2021/09/27 10:11:07;;;;;;;6.57;3.53;;;20.30;99.90;;;;;;5107081;28;20230;-81
2021/09/27 10:13:42;;;;;;;9.60;3.50;;;20.50;99.90;;;;;;5099112;28;20290;-80
2021/09/27 10:16:16;;;;;;;5.43;3.07;;;20.80;99.90;;;;;;5082333;28;20661;-80
2021/09/27 10:18:46;;;;;;;5.63;3.00;;;21.00;99.90;;;;;;5090710;28;20230;-81
2021/09/27 10:21:33;;;;;;;5.33;3.10;;;21.30;99.90;;;;;;5092744;28;20199;-81
2021/09/27 10:24:15;;;;;;;6.27;3.00;;;21.30;99.90;;;;;;5085163;28;20225;-82
2021/09/27 10:26:51;;;;;;;9.50;3.30;;;21.40;99.90;;;;;;5095202;28;20309;-82
2021/09/27 10:29:26;;;;;;;3.70;2.87;;;21.30;99.90;;;;;;5089226;28;20195;-79
2021/09/27 10:31:56;;;;;;;7.57;3.00;;;21.30;99.90;;;;;;5086214;28;20190;-82
2021/09/27 10:34:25;;;;;;;5.68;3.08;;;21.60;99.90;;;;;;5098931;28;20230;-80
2021/09/27 10:36:56;;;;;;;3.08;2.53;;;21.80;99.90;;;;;;5082454;28;20313;-81
2021/09/27 10:39:24;;;;;;;5.63;2.88;;;22.10;99.90;;;;;;5105161;28;20198;-81
2021/09/27 10:41:57;;;;;;;6.55;3.00;;;22.40;99.90;;;;;;5098259;28;20222;-80
2021/09/27 10:44:27;;;;;;;5.25;2.67;;;22.60;99.90;;;;;;5108335;28;20191;-83
2021/09/27 10:47:02;;;;;;;4.05;2.22;;;22.80;99.90;;;;;;5110323;28;20309;-80
2021/09/27 10:49:32;;;;;;;5.72;2.58;;;23.00;99.90;;;;;;5096456;28;20222;-80
2021/09/27 10:52:12;;;;;;;5.72;2.65;;;23.00;99.90;;;;;;5097226;28;20190;-81
2021/09/27 10:54:43;;;;;;;5.05;2.60;;;23.30;99.90;;;;;;5093317;28;20219;-82
2021/09/27 10:57:17;;;;;;;7.63;2.50;;;23.70;99.90;;;;;;5093501;28;20244;-80
2021/09/27 10:59:52;;;;;;;4.63;2.53;;;23.70;99.90;;;;;;5098343;28;20281;-80
2021/09/27 11:02:27;;;;;;;9.88;2.35;;;23.90;99.90;;;;;;5092667;28;20187;-81
2021/09/27 11:04:56;;;;;;;3.10;2.13;;;24.40;99.90;;;;;;5093145;28;20198;-81
2021/09/27 11:07:34;;;;;;;6.82;2.53;;;25.00;99.90;;;;;;5095132;28;20250;-80
2021/09/27 11:10:02;;;;;;;6.15;2.15;;;24.70;99.90;;;;;;5093891;28;20222;-81
2021/09/27 11:12:38;;;;;;;5.55;2.40;;;24.40;99.90;;;;;;5094020;28;20256;-82
2021/09/27 11:15:15;;;;;;;6.15;2.22;;;24.10;99.90;;;;;;5092856;28;20190;-80
2021/09/27 11:17:47;;;;;;;4.85;2.45;;;23.50;99.90;;;;;;5093629;28;20252;-80
2021/09/27 11:20:45;;;;;;;2.85;2.30;;;23.40;99.90;;;;;;5108318;28;20632;-82
2021/09/27 11:23:27;;;;;;;7.20;2.30;;;23.30;99.90;;;;;;5090147;28;20677;-82
2021/09/27 11:26:12;;;;;;;4.93;2.40;;;23.40;99.90;;;;;;5093619;28;20228;-82
2021/09/27 11:28:50;;;;;;;5.88;2.08;;;23.60;99.90;;;;;;5092674;28;20244;-82
2021/09/27 11:31:36;;;;;;;4.38;2.15;;;23.40;99.90;;;;;;5092955;28;20198;-82
2021/09/27 11:34:43;;;;;;;4.25;2.40;;;23.10;99.90;;;;;;5091881;28;20218;-81
2021/09/27 11:37:32;;;;;;;6.38;2.33;;;22.60;99.90;;;;;;5088234;28;20190;-81
2021/09/27 11:40:31;;;;;;;6.43;2.30;;;22.10;99.90;;;;;;5095745;28;20274;-83
2021/09/27 11:43:13;;;;;;;5.57;2.30;;;21.90;99.90;;;;;;5076565;28;20282;-81
2021/09/27 11:45:49;;;;;;;8.23;2.30;;;21.60;99.90;;;;;;5090132;28;20207;-80
2021/09/27 11:48:45;;;;;;;4.00;2.40;;;21.30;99.90;;;;;;5092574;28;20210;-82
2021/09/27 11:51:37;;;;;;;4.50;2.27;;;21.10;99.90;;;;;;5097768;28;20562;-81
2021/09/27 11:54:36;;;;;;;4.40;2.03;;;20.80;99.90;;;;;;5090064;28;20199;-81
2021/09/27 11:57:11;;;;;;;5.30;2.57;;;20.60;99.90;;;;;;5090782;28;20541;-83
2021/09/27 11:59:47;;;;;;;3.77;2.33;;;20.40;99.90;;;;;;5093124;28;20226;-80
2021/09/27 12:02:29;;;;;;;3.47;2.30;;;20.30;99.90;;;;;;5088585;28;20611;-81
2021/09/27 12:05:11;;;;;;;4.13;2.20;;;20.40;99.90;;;;;;5091621;28;20225;-83
2021/09/27 12:07:43;;;;;;;7.67;2.37;;;20.30;99.90;;;;;;5092360;28;20206;-79
2021/09/27 12:10:15;;;;;;;2.97;2.07;;;20.20;99.90;;;;;;5099025;28;20313;-82
2021/09/27 12:12:45;;;;;;;4.63;3.10;;;19.80;99.90;;;;;;5092356;28;20198;-80
2021/09/27 12:15:14;;;;;;;5.43;3.00;;;19.40;99.90;;;;;;5092877;28;20695;-80
2021/09/27 12:17:43;;;;;;;6.13;2.83;;;19.20;99.90;;;;;;5093123;28;20234;-80
2021/09/27 12:20:14;;;;;;;8.10;3.10;;;19.00;99.90;;;;;;5094841;28;20197;-81
2021/09/27 12:22:47;;;;;;;6.10;2.93;;;18.90;99.90;;;;;;5093189;28;20648;-81
2021/09/27 12:25:17;;;;;;;5.37;2.90;;;18.90;99.90;;;;;;5093468;28;20191;-83
2021/09/27 12:27:51;;;;;;;5.60;2.90;;;19.00;99.90;;;;;;5101493;28;20206;-80
2021/09/27 12:30:20;;;;;;;2.40;2.03;;;19.00;99.90;;;;;;5093949;28;20282;-84
2021/09/27 12:32:52;;;;;;;4.97;3.00;;;18.90;99.90;;;;;;5093085;28;20282;-80
2021/09/27 12:35:26;;;;;;;3.70;2.57;;;18.70;99.90;;;;;;5088348;28;20233;-80
2021/09/27 12:37:55;;;;;;;3.67;2.47;;;18.70;99.90;;;;;;5096667;28;20226;-83
2021/09/27 12:40:25;;;;;;;5.00;2.67;;;18.50;99.90;;;;;;5109835;28;20190;-79
2021/09/27 12:42:55;;;;;;;4.00;2.23;;;18.50;99.90;;;;;;5100217;28;20333;-79
2021/09/27 12:45:29;;;;;;;3.90;2.43;;;18.40;99.90;;;;;;5110688;28;20229;-79
2021/09/27 12:48:01;;;;;;;4.37;2.23;;;18.30;99.90;;;;;;5096627;28;20263;-79
2021/09/27 12:50:30;;;;;;;5.60;2.70;;;18.30;99.90;;;;;;5096648;28;20209;-78
2021/09/27 12:53:02;;;;;;;6.13;2.30;;;18.20;99.90;;;;;;5092107;28;20628;-79
2021/09/27 12:55:35;;;;;;;3.70;2.60;;;18.20;99.90;;;;;;5096004;28;20278;-79
2021/09/27 12:58:06;;;;;;;5.97;2.43;;;18.20;99.90;;;;;;5096768;28;20282;-80
2021/09/27 13:00:34;;;;;;;5.60;2.40;;;18.20;99.90;;;;;;5113474;28;20643;-79
2021/09/27 13:03:08;;;;;;;5.13;2.13;;;18.20;99.90;;;;;;5096507;28;20226;-82
2021/09/27 13:05:49;;;;;;;4.70;2.40;;;18.10;99.90;;;;;;5096936;28;20281;-79
2021/09/27 13:08:23;;;;;;;2.63;2.10;;;18.20;99.90;;;;;;5096970;28;20237;-79
2021/09/27 13:10:54;;;;;;;5.67;2.67;;;18.10;99.90;;;;;;5103947;28;20179;-79
2021/09/27 13:13:28;;;;;;;4.90;2.50;;;18.00;99.90;;;;;;5095852;28;20271;-79
2021/09/27 13:15:59;;;;;;;4.23;2.43;;;18.00;99.90;;;;;;5097500;28;20275;-80